sensor_id;sensor_type;location;lat;lon;timestamp;P1;durP1;ratioP1;P2;durP2;ratioP2
66264;SDS011;53055;44.648;21.148;2022-11-21T00:01:13;20.25;;;16.95;;
66264;SDS011;53055;44.648;21.148;2022-11-21T00:03:39;19.88;;;16.80;;
66264;SDS011;53055;44.648;21.148;2022-11-21T00:06:05;34.22;;;29.70;;
66264;SDS011;53055;44.648;21.148;2022-11-21T00:08:31;22.58;;;19.38;;
66264;SDS011;53055;44.648;21.148;2022-11-21T00:10:58;20.13;;;17.55;;
66264;SDS011;53055;44.648;21.148;2022-11-21T00:13:25;24.73;;;20.40;;
66264;SDS011;53055;44.648;21.148;2022-11-21T00:15:51;21.33;;;17.42;;
66264;SDS011;53055;44.648;21.148;2022-11-21T00:18:17;21.25;;;18.73;;
66264;SDS011;53055;44.648;21.148;2022-11-21T00:20:43;20.85;;;17.33;;
66264;SDS011;53055;44.648;21.148;2022-11-21T00:23:09;20.55;;;17.30;;
66264;SDS011;53055;44.648;21.148;2022-11-21T00:25:36;19.90;;;16.38;;
66264;SDS011;53055;44.648;21.148;2022-11-21T00:28:03;21.08;;;17.88;;
66264;SDS011;53055;44.648;21.148;2022-11-21T00:30:29;20.00;;;16.75;;
66264;SDS011;53055;44.648;21.148;2022-11-21T00:32:56;19.70;;;16.58;;
66264;SDS011;53055;44.648;21.148;2022-11-21T00:35:22;22.20;;;17.80;;
66264;SDS011;53055;44.648;21.148;2022-11-21T00:37:48;21.38;;;17.20;;
66264;SDS011;53055;44.648;21.148;2022-11-21T00:40:15;20.58;;;17.17;;
66264;SDS011;53055;44.648;21.148;2022-11-21T00:42:41;18.55;;;15.60;;
66264;SDS011;53055;44.648;21.148;2022-11-21T00:45:07;20.20;;;16.55;;
66264;SDS011;53055;44.648;21.148;2022-11-21T00:47:33;19.95;;;16.08;;
66264;SDS011;53055;44.648;21.148;2022-11-21T00:49:59;19.17;;;15.65;;
66264;SDS011;53055;44.648;21.148;2022-11-21T00:52:25;19.55;;;15.93;;
66264;SDS011;53055;44.648;21.148;2022-11-21T00:54:51;19.45;;;15.23;;
66264;SDS011;53055;44.648;21.148;2022-11-21T00:57:17;20.63;;;15.57;;
66264;SDS011;53055;44.648;21.148;2022-11-21T00:59:43;18.35;;;15.48;;
66264;SDS011;53055;44.648;21.148;2022-11-21T01:02:09;17.67;;;14.50;;
66264;SDS011;53055;44.648;21.148;2022-11-21T01:04:37;18.27;;;14.70;;
66264;SDS011;53055;44.648;21.148;2022-11-21T01:07:03;18.50;;;14.68;;
66264;SDS011;53055;44.648;21.148;2022-11-21T01:09:29;18.42;;;14.60;;
66264;SDS011;53055;44.648;21.148;2022-11-21T01:11:56;17.63;;;13.85;;
66264;SDS011;53055;44.648;21.148;2022-11-21T01:14:22;16.88;;;13.63;;
66264;SDS011;53055;44.648;21.148;2022-11-21T01:16:48;17.65;;;13.80;;
66264;SDS011;53055;44.648;21.148;2022-11-21T01:19:14;19.58;;;14.52;;
66264;SDS011;53055;44.648;21.148;2022-11-21T01:21:40;17.70;;;14.27;;
66264;SDS011;53055;44.648;21.148;2022-11-21T01:24:08;17.13;;;13.90;;
66264;SDS011;53055;44.648;21.148;2022-11-21T01:26:35;17.65;;;13.63;;
66264;SDS011;53055;44.648;21.148;2022-11-21T01:29:02;16.35;;;12.07;;
66264;SDS011;53055;44.648;21.148;2022-11-21T01:31:28;17.25;;;13.00;;
66264;SDS011;53055;44.648;21.148;2022-11-21T01:33:58;17.20;;;13.25;;
66264;SDS011;53055;44.648;21.148;2022-11-21T01:36:25;16.65;;;12.70;;
66264;SDS011;53055;44.648;21.148;2022-11-21T01:38:53;17.08;;;13.45;;
66264;SDS011;53055;44.648;21.148;2022-11-21T01:41:29;17.73;;;14.00;;
66264;SDS011;53055;44.648;21.148;2022-11-21T01:43:57;19.25;;;14.25;;
66264;SDS011;53055;44.648;21.148;2022-11-21T01:46:24;18.52;;;14.45;;
66264;SDS011;53055;44.648;21.148;2022-11-21T01:51:24;17.90;;;14.20;;
66264;SDS011;53055;44.648;21.148;2022-11-21T01:56:37;20.73;;;14.50;;
66264;SDS011;53055;44.648;21.148;2022-11-21T01:59:05;19.25;;;14.23;;
66264;SDS011;53055;44.648;21.148;2022-11-21T02:01:33;18.02;;;14.30;;
66264;SDS011;53055;44.648;21.148;2022-11-21T02:03:59;19.77;;;14.40;;
66264;SDS011;53055;44.648;21.148;2022-11-21T02:06:26;19.80;;;15.15;;
66264;SDS011;53055;44.648;21.148;2022-11-21T02:08:53;19.02;;;14.93;;
66264;SDS011;53055;44.648;21.148;2022-11-21T02:11:29;19.33;;;14.88;;
66264;SDS011;53055;44.648;21.148;2022-11-21T02:13:56;20.00;;;15.82;;
66264;SDS011;53055;44.648;21.148;2022-11-21T02:16:22;19.52;;;15.38;;
66264;SDS011;53055;44.648;21.148;2022-11-21T02:18:49;19.25;;;14.95;;
66264;SDS011;53055;44.648;21.148;2022-11-21T02:23:56;19.27;;;15.25;;
66264;SDS011;53055;44.648;21.148;2022-11-21T02:26:25;19.98;;;15.70;;
66264;SDS011;53055;44.648;21.148;2022-11-21T02:28:51;20.48;;;16.10;;
66264;SDS011;53055;44.648;21.148;2022-11-21T02:31:18;20.80;;;16.58;;
66264;SDS011;53055;44.648;21.148;2022-11-21T02:33:44;19.85;;;15.63;;
66264;SDS011;53055;44.648;21.148;2022-11-21T02:38:54;20.50;;;15.57;;
66264;SDS011;53055;44.648;21.148;2022-11-21T02:41:21;18.77;;;15.48;;
66264;SDS011;53055;44.648;21.148;2022-11-21T02:43:51;20.92;;;17.17;;
66264;SDS011;53055;44.648;21.148;2022-11-21T02:46:20;19.83;;;15.95;;
66264;SDS011;53055;44.648;21.148;2022-11-21T02:48:46;19.95;;;16.00;;
66264;SDS011;53055;44.648;21.148;2022-11-21T02:51:12;19.20;;;16.35;;
66264;SDS011;53055;44.648;21.148;2022-11-21T02:53:38;20.48;;;17.00;;
66264;SDS011;53055;44.648;21.148;2022-11-21T02:56:04;21.30;;;17.90;;
66264;SDS011;53055;44.648;21.148;2022-11-21T02:58:30;22.38;;;18.85;;
66264;SDS011;53055;44.648;21.148;2022-11-21T03:00:56;24.17;;;19.92;;
66264;SDS011;53055;44.648;21.148;2022-11-21T03:03:22;25.08;;;19.40;;
66264;SDS011;53055;44.648;21.148;2022-11-21T03:05:48;22.42;;;18.63;;
66264;SDS011;53055;44.648;21.148;2022-11-21T03:08:14;23.55;;;18.75;;
66264;SDS011;53055;44.648;21.148;2022-11-21T03:10:40;21.98;;;18.77;;
66264;SDS011;53055;44.648;21.148;2022-11-21T03:13:06;25.55;;;20.67;;
66264;SDS011;53055;44.648;21.148;2022-11-21T03:15:32;24.58;;;20.02;;
66264;SDS011;53055;44.648;21.148;2022-11-21T03:17:59;28.40;;;21.58;;
66264;SDS011;53055;44.648;21.148;2022-11-21T03:20:27;30.33;;;23.08;;
66264;SDS011;53055;44.648;21.148;2022-11-21T03:22:53;28.08;;;21.38;;
66264;SDS011;53055;44.648;21.148;2022-11-21T03:25:19;26.80;;;20.48;;
66264;SDS011;53055;44.648;21.148;2022-11-21T03:27:45;26.02;;;20.75;;
66264;SDS011;53055;44.648;21.148;2022-11-21T03:30:11;27.50;;;20.95;;
66264;SDS011;53055;44.648;21.148;2022-11-21T03:32:37;28.25;;;22.83;;
66264;SDS011;53055;44.648;21.148;2022-11-21T03:35:03;27.75;;;21.92;;
66264;SDS011;53055;44.648;21.148;2022-11-21T03:37:30;27.50;;;23.27;;
66264;SDS011;53055;44.648;21.148;2022-11-21T03:39:56;28.58;;;23.42;;
66264;SDS011;53055;44.648;21.148;2022-11-21T03:42:22;27.95;;;21.95;;
66264;SDS011;53055;44.648;21.148;2022-11-21T03:44:48;27.20;;;21.73;;
66264;SDS011;53055;44.648;21.148;2022-11-21T03:47:14;26.77;;;21.70;;
66264;SDS011;53055;44.648;21.148;2022-11-21T03:49:39;31.92;;;22.95;;
66264;SDS011;53055;44.648;21.148;2022-11-21T03:52:05;28.80;;;23.05;;
66264;SDS011;53055;44.648;21.148;2022-11-21T03:54:31;27.85;;;23.15;;
66264;SDS011;53055;44.648;21.148;2022-11-21T03:56:57;28.85;;;22.65;;
66264;SDS011;53055;44.648;21.148;2022-11-21T03:59:23;27.88;;;21.73;;
66264;SDS011;53055;44.648;21.148;2022-11-21T04:01:50;28.95;;;22.58;;
66264;SDS011;53055;44.648;21.148;2022-11-21T04:04:16;29.25;;;23.10;;
66264;SDS011;53055;44.648;21.148;2022-11-21T04:06:42;29.02;;;22.80;;
66264;SDS011;53055;44.648;21.148;2022-11-21T04:09:08;27.08;;;22.13;;
66264;SDS011;53055;44.648;21.148;2022-11-21T04:11:34;28.48;;;25.00;;
66264;SDS011;53055;44.648;21.148;2022-11-21T04:14:00;29.95;;;24.38;;
66264;SDS011;53055;44.648;21.148;2022-11-21T04:16:26;30.10;;;23.80;;
66264;SDS011;53055;44.648;21.148;2022-11-21T04:18:52;30.98;;;23.10;;
66264;SDS011;53055;44.648;21.148;2022-11-21T04:21:18;30.15;;;23.48;;
66264;SDS011;53055;44.648;21.148;2022-11-21T04:23:44;28.65;;;23.30;;
66264;SDS011;53055;44.648;21.148;2022-11-21T04:26:10;28.65;;;23.42;;
66264;SDS011;53055;44.648;21.148;2022-11-21T04:28:36;30.15;;;24.38;;
66264;SDS011;53055;44.648;21.148;2022-11-21T04:31:03;32.80;;;24.67;;
66264;SDS011;53055;44.648;21.148;2022-11-21T04:33:30;34.25;;;24.77;;
66264;SDS011;53055;44.648;21.148;2022-11-21T04:35:56;31.75;;;25.17;;
66264;SDS011;53055;44.648;21.148;2022-11-21T04:38:22;31.80;;;24.17;;
66264;SDS011;53055;44.648;21.148;2022-11-21T04:40:48;30.30;;;23.95;;
66264;SDS011;53055;44.648;21.148;2022-11-21T04:43:14;32.30;;;25.98;;
66264;SDS011;53055;44.648;21.148;2022-11-21T04:45:40;32.83;;;25.52;;
66264;SDS011;53055;44.648;21.148;2022-11-21T04:48:08;32.97;;;25.85;;
66264;SDS011;53055;44.648;21.148;2022-11-21T04:50:34;32.25;;;25.27;;
66264;SDS011;53055;44.648;21.148;2022-11-21T04:53:00;33.58;;;27.08;;
66264;SDS011;53055;44.648;21.148;2022-11-21T04:55:27;34.78;;;26.17;;
66264;SDS011;53055;44.648;21.148;2022-11-21T04:57:54;33.15;;;26.88;;
66264;SDS011;53055;44.648;21.148;2022-11-21T05:00:20;34.17;;;26.30;;
66264;SDS011;53055;44.648;21.148;2022-11-21T05:02:46;34.20;;;27.35;;
66264;SDS011;53055;44.648;21.148;2022-11-21T05:05:12;33.92;;;26.45;;
66264;SDS011;53055;44.648;21.148;2022-11-21T05:07:38;34.03;;;27.90;;
66264;SDS011;53055;44.648;21.148;2022-11-21T05:10:05;35.90;;;27.88;;
66264;SDS011;53055;44.648;21.148;2022-11-21T05:12:32;34.17;;;27.85;;
66264;SDS011;53055;44.648;21.148;2022-11-21T05:15:17;34.47;;;27.50;;
66264;SDS011;53055;44.648;21.148;2022-11-21T05:17:43;34.08;;;27.90;;
66264;SDS011;53055;44.648;21.148;2022-11-21T05:20:09;35.17;;;28.75;;
66264;SDS011;53055;44.648;21.148;2022-11-21T05:22:36;33.97;;;27.40;;
66264;SDS011;53055;44.648;21.148;2022-11-21T05:25:03;33.15;;;26.65;;
66264;SDS011;53055;44.648;21.148;2022-11-21T05:27:30;33.00;;;26.85;;
66264;SDS011;53055;44.648;21.148;2022-11-21T05:29:56;34.65;;;28.75;;
66264;SDS011;53055;44.648;21.148;2022-11-21T05:32:22;35.90;;;27.98;;
66264;SDS011;53055;44.648;21.148;2022-11-21T05:34:48;34.97;;;27.90;;
66264;SDS011;53055;44.648;21.148;2022-11-21T05:37:14;35.65;;;28.95;;
66264;SDS011;53055;44.648;21.148;2022-11-21T05:39:40;35.83;;;29.45;;
66264;SDS011;53055;44.648;21.148;2022-11-21T05:42:06;35.92;;;30.13;;
66264;SDS011;53055;44.648;21.148;2022-11-21T05:44:32;35.80;;;29.73;;
66264;SDS011;53055;44.648;21.148;2022-11-21T05:46:58;36.63;;;29.40;;
66264;SDS011;53055;44.648;21.148;2022-11-21T05:49:24;34.83;;;29.65;;
66264;SDS011;53055;44.648;21.148;2022-11-21T05:51:50;35.55;;;28.10;;
66264;SDS011;53055;44.648;21.148;2022-11-21T05:54:16;34.70;;;28.70;;
66264;SDS011;53055;44.648;21.148;2022-11-21T05:56:42;34.67;;;27.75;;
66264;SDS011;53055;44.648;21.148;2022-11-21T05:59:11;35.75;;;28.52;;
66264;SDS011;53055;44.648;21.148;2022-11-21T06:01:39;34.58;;;26.77;;
66264;SDS011;53055;44.648;21.148;2022-11-21T06:04:23;35.25;;;28.13;;
66264;SDS011;53055;44.648;21.148;2022-11-21T06:06:49;35.08;;;28.77;;
66264;SDS011;53055;44.648;21.148;2022-11-21T06:09:16;34.72;;;28.85;;
66264;SDS011;53055;44.648;21.148;2022-11-21T06:11:42;37.30;;;26.98;;
66264;SDS011;53055;44.648;21.148;2022-11-21T06:14:08;37.17;;;28.83;;
66264;SDS011;53055;44.648;21.148;2022-11-21T06:16:34;37.97;;;29.52;;
66264;SDS011;53055;44.648;21.148;2022-11-21T06:19:00;36.85;;;30.05;;
66264;SDS011;53055;44.648;21.148;2022-11-21T06:21:27;36.25;;;28.70;;
66264;SDS011;53055;44.648;21.148;2022-11-21T06:23:54;38.25;;;29.83;;
66264;SDS011;53055;44.648;21.148;2022-11-21T06:26:21;36.45;;;28.75;;
66264;SDS011;53055;44.648;21.148;2022-11-21T06:28:47;38.53;;;30.15;;
66264;SDS011;53055;44.648;21.148;2022-11-21T06:31:14;39.17;;;31.38;;
66264;SDS011;53055;44.648;21.148;2022-11-21T06:33:41;40.53;;;29.17;;
66264;SDS011;53055;44.648;21.148;2022-11-21T06:36:14;37.15;;;27.73;;
66264;SDS011;53055;44.648;21.148;2022-11-21T06:38:41;37.08;;;29.30;;
66264;SDS011;53055;44.648;21.148;2022-11-21T06:41:24;37.58;;;31.13;;
66264;SDS011;53055;44.648;21.148;2022-11-21T06:43:50;33.75;;;27.90;;
66264;SDS011;53055;44.648;21.148;2022-11-21T06:46:16;37.95;;;30.58;;
66264;SDS011;53055;44.648;21.148;2022-11-21T06:48:43;37.22;;;29.15;;
66264;SDS011;53055;44.648;21.148;2022-11-21T06:51:15;40.25;;;30.80;;
66264;SDS011;53055;44.648;21.148;2022-11-21T06:53:41;35.17;;;28.40;;
66264;SDS011;53055;44.648;21.148;2022-11-21T06:56:08;37.28;;;28.42;;
66264;SDS011;53055;44.648;21.148;2022-11-21T06:58:34;37.63;;;28.50;;
66264;SDS011;53055;44.648;21.148;2022-11-21T07:01:06;37.40;;;28.77;;
66264;SDS011;53055;44.648;21.148;2022-11-21T07:03:33;36.60;;;27.90;;
66264;SDS011;53055;44.648;21.148;2022-11-21T07:05:59;34.95;;;28.83;;
66264;SDS011;53055;44.648;21.148;2022-11-21T07:08:26;37.20;;;28.75;;
66264;SDS011;53055;44.648;21.148;2022-11-21T07:10:52;40.03;;;29.88;;
66264;SDS011;53055;44.648;21.148;2022-11-21T07:13:18;37.13;;;30.25;;
66264;SDS011;53055;44.648;21.148;2022-11-21T07:15:48;37.28;;;29.67;;
66264;SDS011;53055;44.648;21.148;2022-11-21T07:18:15;37.63;;;29.40;;
66264;SDS011;53055;44.648;21.148;2022-11-21T07:20:41;37.75;;;28.58;;
66264;SDS011;53055;44.648;21.148;2022-11-21T07:23:07;37.20;;;29.58;;
66264;SDS011;53055;44.648;21.148;2022-11-21T07:25:33;35.17;;;28.45;;
66264;SDS011;53055;44.648;21.148;2022-11-21T07:28:00;37.83;;;29.45;;
66264;SDS011;53055;44.648;21.148;2022-11-21T07:30:26;36.22;;;26.30;;
66264;SDS011;53055;44.648;21.148;2022-11-21T07:32:58;34.47;;;28.58;;
66264;SDS011;53055;44.648;21.148;2022-11-21T07:35:25;35.50;;;28.05;;
66264;SDS011;53055;44.648;21.148;2022-11-21T07:37:51;36.53;;;29.20;;
66264;SDS011;53055;44.648;21.148;2022-11-21T07:40:18;35.10;;;27.80;;
66264;SDS011;53055;44.648;21.148;2022-11-21T07:42:44;33.42;;;28.20;;
66264;SDS011;53055;44.648;21.148;2022-11-21T07:45:10;37.15;;;26.92;;
66264;SDS011;53055;44.648;21.148;2022-11-21T07:47:36;42.38;;;30.85;;
66264;SDS011;53055;44.648;21.148;2022-11-21T07:50:03;36.15;;;28.05;;
66264;SDS011;53055;44.648;21.148;2022-11-21T07:52:29;34.33;;;27.67;;
66264;SDS011;53055;44.648;21.148;2022-11-21T07:54:55;37.88;;;29.20;;
66264;SDS011;53055;44.648;21.148;2022-11-21T07:57:22;38.53;;;29.83;;
66264;SDS011;53055;44.648;21.148;2022-11-21T07:59:48;35.80;;;28.02;;
66264;SDS011;53055;44.648;21.148;2022-11-21T08:02:21;35.65;;;27.35;;
66264;SDS011;53055;44.648;21.148;2022-11-21T08:04:47;35.05;;;27.95;;
66264;SDS011;53055;44.648;21.148;2022-11-21T08:07:17;36.30;;;27.05;;
66264;SDS011;53055;44.648;21.148;2022-11-21T08:09:44;34.97;;;26.45;;
66264;SDS011;53055;44.648;21.148;2022-11-21T08:12:10;30.92;;;24.85;;
66264;SDS011;53055;44.648;21.148;2022-11-21T08:14:36;35.25;;;27.90;;
66264;SDS011;53055;44.648;21.148;2022-11-21T08:17:03;33.45;;;26.95;;
66264;SDS011;53055;44.648;21.148;2022-11-21T08:19:29;34.28;;;26.48;;
66264;SDS011;53055;44.648;21.148;2022-11-21T08:21:55;29.70;;;24.08;;
66264;SDS011;53055;44.648;21.148;2022-11-21T08:24:21;31.52;;;24.00;;
66264;SDS011;53055;44.648;21.148;2022-11-21T08:26:47;29.98;;;25.52;;
66264;SDS011;53055;44.648;21.148;2022-11-21T08:29:13;30.08;;;26.10;;
66264;SDS011;53055;44.648;21.148;2022-11-21T08:31:40;31.75;;;25.30;;
66264;SDS011;53055;44.648;21.148;2022-11-21T08:34:06;29.60;;;25.55;;
66264;SDS011;53055;44.648;21.148;2022-11-21T08:36:32;29.00;;;24.10;;
66264;SDS011;53055;44.648;21.148;2022-11-21T08:38:58;26.42;;;23.45;;
66264;SDS011;53055;44.648;21.148;2022-11-21T08:41:24;26.65;;;21.08;;
66264;SDS011;53055;44.648;21.148;2022-11-21T08:44:09;26.60;;;21.08;;
66264;SDS011;53055;44.648;21.148;2022-11-21T08:46:35;23.73;;;20.00;;
66264;SDS011;53055;44.648;21.148;2022-11-21T08:49:02;24.40;;;19.52;;
66264;SDS011;53055;44.648;21.148;2022-11-21T08:51:28;25.55;;;20.50;;
66264;SDS011;53055;44.648;21.148;2022-11-21T08:53:54;23.90;;;19.65;;
66264;SDS011;53055;44.648;21.148;2022-11-21T08:56:20;22.00;;;18.17;;
66264;SDS011;53055;44.648;21.148;2022-11-21T08:58:46;23.73;;;18.63;;
66264;SDS011;53055;44.648;21.148;2022-11-21T09:01:12;25.75;;;20.60;;
66264;SDS011;53055;44.648;21.148;2022-11-21T09:03:38;22.73;;;18.65;;
66264;SDS011;53055;44.648;21.148;2022-11-21T09:06:04;21.55;;;18.48;;
66264;SDS011;53055;44.648;21.148;2022-11-21T09:08:31;22.70;;;18.83;;
66264;SDS011;53055;44.648;21.148;2022-11-21T09:10:57;22.08;;;19.23;;
66264;SDS011;53055;44.648;21.148;2022-11-21T09:13:23;20.40;;;17.50;;
66264;SDS011;53055;44.648;21.148;2022-11-21T09:15:49;20.42;;;16.27;;
66264;SDS011;53055;44.648;21.148;2022-11-21T09:18:34;19.90;;;16.23;;
66264;SDS011;53055;44.648;21.148;2022-11-21T09:21:00;18.52;;;15.70;;
66264;SDS011;53055;44.648;21.148;2022-11-21T09:23:26;19.77;;;15.55;;
66264;SDS011;53055;44.648;21.148;2022-11-21T09:25:52;18.48;;;15.20;;
66264;SDS011;53055;44.648;21.148;2022-11-21T09:28:18;18.75;;;15.20;;
66264;SDS011;53055;44.648;21.148;2022-11-21T09:30:44;17.33;;;14.15;;
66264;SDS011;53055;44.648;21.148;2022-11-21T09:33:11;18.30;;;14.43;;
66264;SDS011;53055;44.648;21.148;2022-11-21T09:35:37;16.23;;;13.27;;
66264;SDS011;53055;44.648;21.148;2022-11-21T09:38:04;15.23;;;12.65;;
66264;SDS011;53055;44.648;21.148;2022-11-21T09:40:30;14.93;;;12.60;;
66264;SDS011;53055;44.648;21.148;2022-11-21T09:45:45;13.77;;;11.05;;
66264;SDS011;53055;44.648;21.148;2022-11-21T09:48:25;14.73;;;12.02;;
66264;SDS011;53055;44.648;21.148;2022-11-21T09:50:53;13.50;;;11.13;;
66264;SDS011;53055;44.648;21.148;2022-11-21T09:53:29;13.98;;;11.52;;
66264;SDS011;53055;44.648;21.148;2022-11-21T09:55:58;15.07;;;11.98;;
66264;SDS011;53055;44.648;21.148;2022-11-21T09:58:28;17.23;;;12.15;;
66264;SDS011;53055;44.648;21.148;2022-11-21T10:00:56;16.20;;;13.60;;
66264;SDS011;53055;44.648;21.148;2022-11-21T10:03:23;15.73;;;12.90;;
66264;SDS011;53055;44.648;21.148;2022-11-21T10:05:52;16.63;;;13.57;;
66264;SDS011;53055;44.648;21.148;2022-11-21T10:10:59;17.48;;;14.30;;
66264;SDS011;53055;44.648;21.148;2022-11-21T10:13:35;18.70;;;15.02;;
66264;SDS011;53055;44.648;21.148;2022-11-21T10:23:51;20.05;;;17.02;;
66264;SDS011;53055;44.648;21.148;2022-11-21T10:29:47;19.15;;;15.65;;
66264;SDS011;53055;44.648;21.148;2022-11-21T10:31:40;18.77;;;15.90;;
66264;SDS011;53055;44.648;21.148;2022-11-21T10:34:11;19.88;;;16.25;;
66264;SDS011;53055;44.648;21.148;2022-11-21T10:36:39;20.58;;;18.02;;
66264;SDS011;53055;44.648;21.148;2022-11-21T10:39:11;20.70;;;16.85;;
66264;SDS011;53055;44.648;21.148;2022-11-21T10:41:46;19.58;;;16.45;;
66264;SDS011;53055;44.648;21.148;2022-11-21T10:44:16;18.85;;;16.65;;
66264;SDS011;53055;44.648;21.148;2022-11-21T10:47:10;18.83;;;16.25;;
66264;SDS011;53055;44.648;21.148;2022-11-21T10:49:37;20.13;;;16.95;;
66264;SDS011;53055;44.648;21.148;2022-11-21T10:54:30;20.10;;;16.67;;
66264;SDS011;53055;44.648;21.148;2022-11-21T10:57:06;21.25;;;17.42;;
66264;SDS011;53055;44.648;21.148;2022-11-21T10:59:36;22.23;;;17.55;;
66264;SDS011;53055;44.648;21.148;2022-11-21T11:04:37;20.50;;;17.88;;
66264;SDS011;53055;44.648;21.148;2022-11-21T11:07:18;22.55;;;18.20;;
66264;SDS011;53055;44.648;21.148;2022-11-21T11:09:45;23.80;;;19.05;;
66264;SDS011;53055;44.648;21.148;2022-11-21T11:14:54;23.48;;;18.38;;
66264;SDS011;53055;44.648;21.148;2022-11-21T11:20:05;20.65;;;17.80;;
66264;SDS011;53055;44.648;21.148;2022-11-21T11:22:32;22.05;;;17.85;;
66264;SDS011;53055;44.648;21.148;2022-11-21T11:24:58;21.65;;;18.20;;
66264;SDS011;53055;44.648;21.148;2022-11-21T11:27:27;20.95;;;18.38;;
66264;SDS011;53055;44.648;21.148;2022-11-21T11:29:54;24.70;;;20.23;;
66264;SDS011;53055;44.648;21.148;2022-11-21T11:32:20;22.92;;;19.00;;
66264;SDS011;53055;44.648;21.148;2022-11-21T11:39:49;22.58;;;19.10;;
66264;SDS011;53055;44.648;21.148;2022-11-21T11:47:59;20.52;;;18.27;;
66264;SDS011;53055;44.648;21.148;2022-11-21T11:50:27;22.98;;;19.20;;
66264;SDS011;53055;44.648;21.148;2022-11-21T11:58:28;21.45;;;18.55;;
66264;SDS011;53055;44.648;21.148;2022-11-21T12:01:01;22.85;;;19.30;;
66264;SDS011;53055;44.648;21.148;2022-11-21T12:06:17;21.92;;;18.85;;
66264;SDS011;53055;44.648;21.148;2022-11-21T12:08:51;24.33;;;20.02;;
66264;SDS011;53055;44.648;21.148;2022-11-21T12:11:22;23.85;;;19.65;;
66264;SDS011;53055;44.648;21.148;2022-11-21T12:14:10;23.02;;;20.33;;
66264;SDS011;53055;44.648;21.148;2022-11-21T12:16:58;22.23;;;19.80;;
66264;SDS011;53055;44.648;21.148;2022-11-21T12:19:25;21.95;;;19.55;;
66264;SDS011;53055;44.648;21.148;2022-11-21T12:21:51;21.65;;;19.30;;
66264;SDS011;53055;44.648;21.148;2022-11-21T12:24:17;21.38;;;19.05;;
66264;SDS011;53055;44.648;21.148;2022-11-21T12:26:58;20.73;;;18.02;;
66264;SDS011;53055;44.648;21.148;2022-11-21T12:42:35;22.70;;;18.77;;
66264;SDS011;53055;44.648;21.148;2022-11-21T12:50:33;21.98;;;19.33;;
66264;SDS011;53055;44.648;21.148;2022-11-21T12:53:29;22.02;;;18.45;;
66264;SDS011;53055;44.648;21.148;2022-11-21T12:56:25;20.02;;;17.33;;
66264;SDS011;53055;44.648;21.148;2022-11-21T12:58:53;21.50;;;17.45;;
66264;SDS011;53055;44.648;21.148;2022-11-21T13:01:29;22.35;;;18.13;;
66264;SDS011;53055;44.648;21.148;2022-11-21T13:04:04;22.30;;;16.63;;
66264;SDS011;53055;44.648;21.148;2022-11-21T13:06:37;20.30;;;17.23;;
66264;SDS011;53055;44.648;21.148;2022-11-21T13:09:06;23.65;;;19.02;;
66264;SDS011;53055;44.648;21.148;2022-11-21T13:17:08;20.83;;;17.27;;
66264;SDS011;53055;44.648;21.148;2022-11-21T13:27:55;20.65;;;17.25;;
66264;SDS011;53055;44.648;21.148;2022-11-21T13:38:25;19.52;;;17.02;;
66264;SDS011;53055;44.648;21.148;2022-11-21T13:40:51;19.65;;;16.35;;
66264;SDS011;53055;44.648;21.148;2022-11-21T13:43:35;20.10;;;17.33;;
66264;SDS011;53055;44.648;21.148;2022-11-21T13:46:02;19.27;;;17.27;;
66264;SDS011;53055;44.648;21.148;2022-11-21T13:58:43;22.00;;;18.90;;
66264;SDS011;53055;44.648;21.148;2022-11-21T14:04:06;22.73;;;18.50;;
66264;SDS011;53055;44.648;21.148;2022-11-21T14:06:37;23.48;;;18.48;;
66264;SDS011;53055;44.648;21.148;2022-11-21T14:14:30;23.35;;;20.83;;
66264;SDS011;53055;44.648;21.148;2022-11-21T14:19:43;28.80;;;24.17;;
66264;SDS011;53055;44.648;21.148;2022-11-21T14:24:53;27.58;;;22.13;;
66264;SDS011;53055;44.648;21.148;2022-11-21T14:27:25;23.45;;;20.30;;
66264;SDS011;53055;44.648;21.148;2022-11-21T14:29:52;29.02;;;24.08;;
66264;SDS011;53055;44.648;21.148;2022-11-21T14:32:24;26.33;;;21.95;;
66264;SDS011;53055;44.648;21.148;2022-11-21T14:34:51;36.70;;;30.23;;
66264;SDS011;53055;44.648;21.148;2022-11-21T14:37:17;24.23;;;20.45;;
66264;SDS011;53055;44.648;21.148;2022-11-21T14:39:43;21.98;;;18.60;;
66264;SDS011;53055;44.648;21.148;2022-11-21T14:42:12;25.23;;;21.00;;
66264;SDS011;53055;44.648;21.148;2022-11-21T14:44:39;25.23;;;20.13;;
66264;SDS011;53055;44.648;21.148;2022-11-21T14:47:15;34.20;;;24.75;;
66264;SDS011;53055;44.648;21.148;2022-11-21T14:49:48;33.17;;;24.20;;
66264;SDS011;53055;44.648;21.148;2022-11-21T14:52:16;42.83;;;30.17;;
66264;SDS011;53055;44.648;21.148;2022-11-21T14:54:44;36.17;;;28.98;;
66264;SDS011;53055;44.648;21.148;2022-11-21T14:57:18;43.45;;;32.20;;
66264;SDS011;53055;44.648;21.148;2022-11-21T14:59:44;44.55;;;37.53;;
66264;SDS011;53055;44.648;21.148;2022-11-21T15:02:15;56.85;;;44.90;;
66264;SDS011;53055;44.648;21.148;2022-11-21T15:04:41;58.20;;;50.65;;
66264;SDS011;53055;44.648;21.148;2022-11-21T15:07:18;40.13;;;35.83;;
66264;SDS011;53055;44.648;21.148;2022-11-21T15:09:45;52.13;;;44.22;;
66264;SDS011;53055;44.648;21.148;2022-11-21T15:12:11;32.83;;;29.05;;
66264;SDS011;53055;44.648;21.148;2022-11-21T15:14:43;33.08;;;29.35;;
66264;SDS011;53055;44.648;21.148;2022-11-21T15:17:12;58.58;;;46.83;;
66264;SDS011;53055;44.648;21.148;2022-11-21T15:19:38;52.20;;;42.33;;
66264;SDS011;53055;44.648;21.148;2022-11-21T15:22:14;43.85;;;35.75;;
66264;SDS011;53055;44.648;21.148;2022-11-21T15:24:42;36.92;;;31.88;;
66264;SDS011;53055;44.648;21.148;2022-11-21T15:30:27;21.38;;;18.75;;
66264;SDS011;53055;44.648;21.148;2022-11-21T15:33:05;21.60;;;18.85;;
66264;SDS011;53055;44.648;21.148;2022-11-21T15:46:03;24.98;;;21.52;;
66264;SDS011;53055;44.648;21.148;2022-11-21T15:48:29;32.72;;;28.05;;
66264;SDS011;53055;44.648;21.148;2022-11-21T15:50:55;35.65;;;29.80;;
66264;SDS011;53055;44.648;21.148;2022-11-21T15:53:21;26.48;;;22.17;;
66264;SDS011;53055;44.648;21.148;2022-11-21T15:55:47;23.02;;;19.55;;
66264;SDS011;53055;44.648;21.148;2022-11-21T15:58:13;26.88;;;21.92;;
66264;SDS011;53055;44.648;21.148;2022-11-21T16:00:39;37.20;;;29.60;;
66264;SDS011;53055;44.648;21.148;2022-11-21T16:03:05;39.58;;;32.45;;
66264;SDS011;53055;44.648;21.148;2022-11-21T16:05:31;30.27;;;26.52;;
66264;SDS011;53055;44.648;21.148;2022-11-21T16:07:57;42.28;;;35.40;;
66264;SDS011;53055;44.648;21.148;2022-11-21T16:10:23;40.78;;;36.30;;
66264;SDS011;53055;44.648;21.148;2022-11-21T16:12:49;39.60;;;32.55;;
66264;SDS011;53055;44.648;21.148;2022-11-21T16:15:15;51.03;;;43.72;;
66264;SDS011;53055;44.648;21.148;2022-11-21T16:17:41;49.42;;;43.05;;
66264;SDS011;53055;44.648;21.148;2022-11-21T16:20:09;32.88;;;29.45;;
66264;SDS011;53055;44.648;21.148;2022-11-21T16:22:35;32.10;;;28.02;;
66264;SDS011;53055;44.648;21.148;2022-11-21T16:25:01;30.52;;;27.20;;
66264;SDS011;53055;44.648;21.148;2022-11-21T16:27:27;34.22;;;30.13;;